createdAt,value
2023-01-13T00:01:50.475Z,0.40
2023-01-13T00:04:37.294Z,0.40
2023-01-13T00:07:24.208Z,0.80
2023-01-13T00:10:12.409Z,0.60
2023-01-13T00:13:02.165Z,0.67
2023-01-13T00:15:57.536Z,0.53
2023-01-13T00:18:45.250Z,0.70
2023-01-13T00:21:32.281Z,0.67
2023-01-13T00:24:18.991Z,0.60
2023-01-13T00:27:05.830Z,0.63
2023-01-13T00:29:54.689Z,0.70
2023-01-13T00:32:41.708Z,0.50
2023-01-13T00:35:28.921Z,0.70
2023-01-13T00:38:15.696Z,0.70
2023-01-13T00:41:04.942Z,0.50
2023-01-13T00:43:50.871Z,0.80
2023-01-13T00:46:39.475Z,0.40
2023-01-13T00:49:26.514Z,0.87
2023-01-13T00:52:15.176Z,0.57
2023-01-13T00:55:02.183Z,0.67
2023-01-13T00:57:49.220Z,0.30
2023-01-13T01:00:36.148Z,0.70
2023-01-13T01:03:24.546Z,0.60
2023-01-13T01:06:14.732Z,0.60
2023-01-13T01:09:01.884Z,0.30
2023-01-13T01:11:48.775Z,0.50
2023-01-13T01:14:37.834Z,0.40
2023-01-13T01:17:24.832Z,0.47
2023-01-13T01:20:14.123Z,0.40
2023-01-13T01:23:01.119Z,0.43
2023-01-13T01:25:48.270Z,0.40
2023-01-13T01:28:36.011Z,0.30
2023-01-13T01:31:24.169Z,0.73
2023-01-13T01:34:11.259Z,0.47
2023-01-13T01:36:59.892Z,0.30
2023-01-13T01:39:47.046Z,0.50
2023-01-13T01:42:51.312Z,0.40
2023-01-13T01:45:38.191Z,0.43
2023-01-13T01:48:25.873Z,0.50
2023-01-13T01:51:15.201Z,0.40
2023-01-13T01:54:05.522Z,0.50
2023-01-13T01:56:53.192Z,0.70
2023-01-13T01:59:40.929Z,0.40
2023-01-13T02:02:28.213Z,0.80
2023-01-13T02:05:15.459Z,0.60
2023-01-13T02:08:03.056Z,0.40
2023-01-13T02:10:55.281Z,0.60
2023-01-13T02:13:41.375Z,0.40
2023-01-13T02:16:28.306Z,0.63
2023-01-13T02:19:49.588Z,0.30
2023-01-13T02:23:04.900Z,0.40
2023-01-13T02:26:15.399Z,0.67
2023-01-13T02:29:31.434Z,0.50
2023-01-13T02:32:24.567Z,0.50
2023-01-13T02:35:21.831Z,0.40
2023-01-13T02:38:12.340Z,0.40
2023-01-13T02:41:26.087Z,0.27
2023-01-13T02:44:14.531Z,0.20
2023-01-13T02:47:06.720Z,0.47
2023-01-13T02:49:59.508Z,0.20
2023-01-13T02:52:50.727Z,0.20
2023-01-13T02:55:41.324Z,0.20
2023-01-13T02:58:30.833Z,0.20
2023-01-13T03:01:18.300Z,0.20
2023-01-13T03:04:13.342Z,0.27
2023-01-13T03:07:09.239Z,0.40
2023-01-13T03:10:03.967Z,0.30
2023-01-13T03:12:58.537Z,0.50
2023-01-13T03:15:54.718Z,0.40
2023-01-13T03:18:47.087Z,0.40
2023-01-13T03:21:40.659Z,0.40
2023-01-13T03:24:35.589Z,0.70
2023-01-13T03:27:27.955Z,0.50
2023-01-13T03:30:20.266Z,0.30
2023-01-13T03:33:14.269Z,0.37
2023-01-13T03:36:06.408Z,0.30
2023-01-13T03:38:56.020Z,0.30
2023-01-13T03:41:50.233Z,0.30
2023-01-13T03:44:41.151Z,0.30
2023-01-13T03:47:35.458Z,0.20
2023-01-13T03:50:28.782Z,0.30
2023-01-13T03:53:20.149Z,0.30
2023-01-13T03:56:11.599Z,0.20
2023-01-13T03:59:02.758Z,0.30
2023-01-13T04:01:58.480Z,0.20
2023-01-13T04:04:50.931Z,0.30
2023-01-13T04:07:47.583Z,0.10
2023-01-13T04:10:40.471Z,0.20
2023-01-13T04:13:31.472Z,0.60
2023-01-13T04:16:19.929Z,0.20
2023-01-13T04:19:07.692Z,0.20
2023-01-13T04:21:54.453Z,0.30
2023-01-13T04:24:41.281Z,0.20
2023-01-13T04:27:28.313Z,0.40
2023-01-13T04:30:15.364Z,0.20
2023-01-13T04:33:05.381Z,0.20
2023-01-13T04:35:52.730Z,0.20
2023-01-13T04:38:39.761Z,0.30
2023-01-13T04:41:26.897Z,0.20
2023-01-13T04:44:14.105Z,0.10
2023-01-13T04:47:01.153Z,0.20
2023-01-13T04:49:49.925Z,0.30
2023-01-13T04:52:36.829Z,0.20
2023-01-13T04:55:25.583Z,0.30
2023-01-13T04:58:12.861Z,0.20
2023-01-13T05:01:00.211Z,0.10
2023-01-13T05:03:47.090Z,0.20
2023-01-13T05:06:35.981Z,0.20
2023-01-13T05:09:22.993Z,0.17
2023-01-13T05:12:28.694Z,0.20
2023-01-13T05:15:34.524Z,0.40
2023-01-13T05:18:22.120Z,0.20
2023-01-13T05:21:29.852Z,0.10
2023-01-13T05:24:36.115Z,0.23
2023-01-13T05:27:22.881Z,0.20
2023-01-13T05:30:11.203Z,0.20
2023-01-13T05:32:58.311Z,0.20
2023-01-13T05:35:47.189Z,0.20
2023-01-13T05:38:34.387Z,0.20
2023-01-13T05:41:40.265Z,0.20
2023-01-13T05:44:26.947Z,0.10
2023-01-13T05:47:13.778Z,0.20
2023-01-13T05:50:01.478Z,0.10
2023-01-13T05:52:49.367Z,0.30
2023-01-13T05:55:36.399Z,0.20
2023-01-13T05:58:27.280Z,0.20
2023-01-13T06:01:14.208Z,0.20
2023-01-13T06:04:01.719Z,0.20
2023-01-13T06:06:49.025Z,0.20
2023-01-13T06:09:36.507Z,0.20
2023-01-13T06:12:23.346Z,0.20
2023-01-13T06:15:12.740Z,0.20
2023-01-13T06:18:00.167Z,0.20
2023-01-13T06:20:48.489Z,0.20
2023-01-13T06:23:38.826Z,0.20
2023-01-13T06:26:29.261Z,0.20
2023-01-13T06:29:16.956Z,0.20
2023-01-13T06:32:08.092Z,0.17
2023-01-13T06:35:00.620Z,0.20
2023-01-13T06:37:52.153Z,0.20
2023-01-13T06:40:39.445Z,0.20
2023-01-13T06:43:25.776Z,0.20
2023-01-13T06:46:12.976Z,0.20
2023-01-13T06:49:02.874Z,0.30
2023-01-13T06:51:50.094Z,0.20
2023-01-13T06:54:37.077Z,0.20
2023-01-13T06:57:24.150Z,0.33
2023-01-13T07:00:12.966Z,0.10
2023-01-13T07:03:10.878Z,0.20
2023-01-13T07:06:00.046Z,0.17
2023-01-13T07:08:46.955Z,0.20
2023-01-13T07:11:34.186Z,0.10
2023-01-13T07:14:38.560Z,0.10
2023-01-13T07:17:26.211Z,0.10
2023-01-13T07:20:13.865Z,0.20
2023-01-13T07:23:02.221Z,0.10
2023-01-13T07:25:49.395Z,0.20
2023-01-13T07:28:46.563Z,0.20
2023-01-13T07:31:33.746Z,0.10
2023-01-13T07:34:20.945Z,0.30
2023-01-13T07:37:10.311Z,0.10
2023-01-13T07:40:02.489Z,0.20
2023-01-13T07:43:06.937Z,0.20
2023-01-13T07:45:58.595Z,0.30
2023-01-13T07:48:45.712Z,0.20
2023-01-13T07:51:33.717Z,0.20
2023-01-13T07:54:25.455Z,0.20
2023-01-13T07:57:20.648Z,0.30
2023-01-13T08:00:10.963Z,0.20
2023-01-13T08:03:01.844Z,0.20
2023-01-13T08:05:49.130Z,0.30
2023-01-13T08:08:36.499Z,0.20
2023-01-13T08:11:23.769Z,0.30
2023-01-13T08:14:12.175Z,0.30
2023-01-13T08:16:59.269Z,0.20
2023-01-13T08:19:46.188Z,0.20
2023-01-13T08:22:34.083Z,0.20
2023-01-13T08:25:20.843Z,0.20
2023-01-13T08:28:08.175Z,0.10
2023-01-13T08:30:56.635Z,0.20
2023-01-13T08:33:43.825Z,0.30
2023-01-13T08:36:30.587Z,0.20
2023-01-13T08:39:18.742Z,0.17
2023-01-13T08:42:05.807Z,0.20
2023-01-13T08:44:54.608Z,0.20
2023-01-13T08:47:42.967Z,0.20
2023-01-13T08:50:30.186Z,0.20
2023-01-13T08:53:17.082Z,0.30
2023-01-13T08:56:07.824Z,0.20
2023-01-13T08:58:54.675Z,0.10
2023-01-13T09:01:42.652Z,0.20
2023-01-13T09:04:31.835Z,0.20
2023-01-13T09:07:19.619Z,0.20
2023-01-13T09:10:08.907Z,0.20
2023-01-13T09:13:13.455Z,0.20
2023-01-13T09:16:00.737Z,0.10
2023-01-13T09:18:47.648Z,0.20
2023-01-13T09:21:35.844Z,0.20
2023-01-13T09:24:23.528Z,0.20
2023-01-13T09:27:11.082Z,0.40
2023-01-13T09:29:57.849Z,0.33
2023-01-13T09:32:44.675Z,0.27
2023-01-13T09:35:31.669Z,0.20
2023-01-13T09:38:20.263Z,0.20
2023-01-13T09:41:27.575Z,0.20
2023-01-13T09:44:20.289Z,0.30
2023-01-13T09:47:15.909Z,0.20
2023-01-13T09:50:16.713Z,0.30
2023-01-13T09:53:04.579Z,0.30
2023-01-13T09:55:53.087Z,0.20
2023-01-13T09:58:40.473Z,0.20
2023-01-13T10:01:33.577Z,0.30
2023-01-13T10:04:20.974Z,0.27
2023-01-13T10:07:15.569Z,0.40
2023-01-13T10:10:09.322Z,0.33
2023-01-13T10:13:16.432Z,0.20
2023-01-13T10:16:19.987Z,0.30
2023-01-13T10:19:17.441Z,0.30
2023-01-13T10:22:25.727Z,0.30
2023-01-13T10:25:26.656Z,0.40
2023-01-13T10:28:19.436Z,0.20
2023-01-13T10:31:13.452Z,0.30
2023-01-13T10:34:01.494Z,0.30
2023-01-13T10:37:02.048Z,0.40
2023-01-13T10:39:50.322Z,0.40
2023-01-13T10:42:37.487Z,0.20
2023-01-13T10:45:27.462Z,0.37
2023-01-13T10:48:15.898Z,0.40
2023-01-13T10:51:22.894Z,0.30
2023-01-13T10:54:22.287Z,0.30
2023-01-13T10:57:20.096Z,0.40
2023-01-13T11:00:26.806Z,0.40
2023-01-13T11:03:21.557Z,0.33
2023-01-13T11:06:09.722Z,0.30
2023-01-13T11:08:59.294Z,0.40
2023-01-13T11:11:47.467Z,0.27
2023-01-13T11:14:42.696Z,0.20
2023-01-13T11:17:35.691Z,0.37
2023-01-13T11:20:32.614Z,0.30
2023-01-13T11:23:27.501Z,0.30
2023-01-13T11:26:20.725Z,0.40
2023-01-13T11:29:15.589Z,0.23
2023-01-13T11:32:10.788Z,0.40
2023-01-13T11:35:02.323Z,0.27
2023-01-13T11:37:54.933Z,0.30
2023-01-13T11:40:47.664Z,0.47
2023-01-13T11:43:41.105Z,0.47
2023-01-13T11:46:30.010Z,0.20
2023-01-13T11:49:26.266Z,0.33
2023-01-13T11:52:20.630Z,0.50
2023-01-13T11:55:22.649Z,0.50
2023-01-13T11:58:50.330Z,0.40
2023-01-13T12:02:02.103Z,0.40
2023-01-13T12:04:57.031Z,0.93
2023-01-13T12:07:52.250Z,0.60
2023-01-13T12:10:54.978Z,0.50
2023-01-13T12:13:49.291Z,0.40
2023-01-13T12:16:42.746Z,0.43
2023-01-13T12:19:32.647Z,0.30
2023-01-13T12:22:24.916Z,0.57
2023-01-13T12:25:22.783Z,0.40
2023-01-13T12:28:18.371Z,0.50
2023-01-13T12:31:07.498Z,0.93
2023-01-13T12:34:14.209Z,0.27
2023-01-13T12:37:08.681Z,0.80
2023-01-13T12:40:16.574Z,0.50
2023-01-13T12:43:33.559Z,0.40
2023-01-13T12:46:46.233Z,0.40
2023-01-13T12:49:34.247Z,0.40
2023-01-13T12:52:21.570Z,0.40
2023-01-13T12:55:20.551Z,0.23
2023-01-13T12:58:19.194Z,0.30
2023-01-13T13:01:14.462Z,0.40
2023-01-13T13:04:12.421Z,0.50
2023-01-13T13:07:09.978Z,0.20
2023-01-13T13:10:00.776Z,0.60
2023-01-13T13:13:15.047Z,0.83
2023-01-13T13:16:37.443Z,0.40
2023-01-13T13:19:49.912Z,0.60
2023-01-13T13:22:45.680Z,0.40
2023-01-13T13:25:32.711Z,0.60
2023-01-13T13:28:22.006Z,0.33
2023-01-13T13:31:22.546Z,0.60
2023-01-13T13:34:17.510Z,0.40
2023-01-13T13:37:26.557Z,0.40
2023-01-13T13:40:33.035Z,0.30
2023-01-13T13:43:39.318Z,0.53
2023-01-13T13:46:46.716Z,0.70
2023-01-13T13:49:41.348Z,0.50
2023-01-13T13:52:36.936Z,0.80
2023-01-13T13:55:26.525Z,0.50
2023-01-13T13:58:19.038Z,0.40
2023-01-13T14:01:07.449Z,0.60
2023-01-13T14:04:11.696Z,0.60
2023-01-13T14:06:59.835Z,0.30
2023-01-13T14:09:53.718Z,0.50
2023-01-13T14:12:41.648Z,0.40
2023-01-13T14:15:33.105Z,0.37
2023-01-13T14:18:22.540Z,0.40
2023-01-13T14:21:20.685Z,0.40
2023-01-13T14:24:21.144Z,0.50
2023-01-13T14:27:11.073Z,0.33
2023-01-13T14:30:00.248Z,0.33
2023-01-13T14:32:47.287Z,0.50
2023-01-13T14:35:34.223Z,0.40
2023-01-13T14:38:21.458Z,0.37
2023-01-13T14:41:16.942Z,0.30
2023-01-13T14:44:19.941Z,0.40
2023-01-13T14:47:20.873Z,0.37
2023-01-13T14:50:22.038Z,0.37
2023-01-13T14:53:32.073Z,0.30
2023-01-13T14:56:43.600Z,0.57
2023-01-13T14:59:43.937Z,0.53
2023-01-13T15:02:49.760Z,0.43
2023-01-13T15:05:47.763Z,0.27
2023-01-13T15:08:40.005Z,0.30
2023-01-13T15:11:30.355Z,0.50
2023-01-13T15:14:23.328Z,0.50
2023-01-13T15:17:17.698Z,0.50
2023-01-13T15:20:04.717Z,0.40
2023-01-13T15:22:53.230Z,0.77
2023-01-13T15:25:42.774Z,0.40
2023-01-13T15:28:32.002Z,0.43
2023-01-13T15:31:19.162Z,0.83
2023-01-13T15:34:07.762Z,0.67
2023-01-13T15:36:54.891Z,0.67
2023-01-13T15:39:42.266Z,0.80
2023-01-13T15:42:46.819Z,0.63
2023-01-13T15:45:54.638Z,0.40
2023-01-13T15:48:41.794Z,1.47
2023-01-13T15:51:30.525Z,0.30
2023-01-13T15:54:19.971Z,0.33
2023-01-13T15:57:07.650Z,0.60
2023-01-13T15:59:57.870Z,0.50
2023-01-13T16:02:44.807Z,0.70
2023-01-13T16:05:32.320Z,0.50
2023-01-13T16:08:22.636Z,0.47
2023-01-13T16:11:12.165Z,0.73
2023-01-13T16:13:59.799Z,0.80
2023-01-13T16:16:47.045Z,0.53
2023-01-13T16:19:33.951Z,0.50
2023-01-13T16:22:21.672Z,0.50
2023-01-13T16:25:17.783Z,0.73
2023-01-13T16:28:05.172Z,0.40
2023-01-13T16:30:52.900Z,0.53
2023-01-13T16:33:40.597Z,0.40
2023-01-13T16:36:28.176Z,0.40
2023-01-13T16:39:22.306Z,0.40
2023-01-13T16:42:10.392Z,0.60
2023-01-13T16:44:58.775Z,0.60
2023-01-13T16:47:45.922Z,0.70
2023-01-13T16:50:36.761Z,0.57
2023-01-13T16:53:23.763Z,0.70
2023-01-13T16:56:20.590Z,0.30
2023-01-13T16:59:12.077Z,0.50
2023-01-13T17:01:59.250Z,0.20
2023-01-13T17:04:46.572Z,0.40
2023-01-13T17:07:34.013Z,0.43
2023-01-13T17:10:25.527Z,0.30
2023-01-13T17:13:16.238Z,0.33
2023-01-13T17:16:06.909Z,0.57
2023-01-13T17:18:54.397Z,0.70
2023-01-13T17:21:42.835Z,0.70
2023-01-13T17:24:31.224Z,0.50
2023-01-13T17:27:18.844Z,0.47
2023-01-13T17:30:06.707Z,0.77
2023-01-13T17:32:55.479Z,0.60
2023-01-13T17:35:42.600Z,0.40
2023-01-13T17:39:31.618Z,0.60
2023-01-13T17:42:20.026Z,0.50
2023-01-13T17:45:09.282Z,0.60
2023-01-13T17:47:59.615Z,0.50
2023-01-13T17:50:48.688Z,0.40
2023-01-13T17:53:35.555Z,0.30
2023-01-13T17:56:24.794Z,0.57
2023-01-13T17:59:13.767Z,0.50
2023-01-13T18:02:01.079Z,0.50
2023-01-13T18:04:49.981Z,0.50
2023-01-13T18:07:36.820Z,0.40
2023-01-13T18:10:25.003Z,0.40
2023-01-13T18:14:07.597Z,0.40
2023-01-13T18:16:58.235Z,0.50
2023-01-13T18:20:02.806Z,0.50
2023-01-13T18:23:08.474Z,0.40
2023-01-13T18:26:12.388Z,1.03
2023-01-13T18:28:59.271Z,0.50
2023-01-13T18:31:46.488Z,0.50
2023-01-13T18:34:34.964Z,0.30
2023-01-13T18:37:21.996Z,0.50
2023-01-13T18:40:12.881Z,0.43
2023-01-13T18:42:59.369Z,0.30
2023-01-13T18:45:51.603Z,0.30
2023-01-13T18:48:39.248Z,0.70
2023-01-13T18:51:26.118Z,0.53
2023-01-13T18:54:13.001Z,0.50
2023-01-13T18:57:02.871Z,0.37
2023-01-13T18:59:51.628Z,0.57
2023-01-13T19:02:39.012Z,0.60
2023-01-13T19:05:26.112Z,0.77
2023-01-13T19:08:13.093Z,0.47
2023-01-13T19:11:04.411Z,0.40
2023-01-13T19:13:53.639Z,0.40
2023-01-13T19:16:42.109Z,0.67
2023-01-13T19:19:29.263Z,0.50
2023-01-13T19:22:19.813Z,0.40
2023-01-13T19:25:07.895Z,0.40
2023-01-13T19:27:55.090Z,0.70
2023-01-13T19:30:43.798Z,0.53
2023-01-13T19:33:32.014Z,0.40
2023-01-13T19:36:19.128Z,0.50
2023-01-13T19:39:08.322Z,0.60
2023-01-13T19:42:13.957Z,1.10
2023-01-13T19:45:17.878Z,0.60
2023-01-13T19:48:08.438Z,0.70
2023-01-13T19:50:55.593Z,0.73
2023-01-13T19:53:43.017Z,0.60
2023-01-13T19:56:30.998Z,0.30
2023-01-13T19:59:22.330Z,0.73
2023-01-13T20:02:15.717Z,1.90
2023-01-13T20:05:07.664Z,0.80
2023-01-13T20:07:54.612Z,0.80
2023-01-13T20:10:43.008Z,0.97
2023-01-13T20:13:30.235Z,1.10
2023-01-13T20:16:17.358Z,0.80
2023-01-13T20:19:04.582Z,0.50
2023-01-13T20:21:53.363Z,0.63
2023-01-13T20:24:40.846Z,0.70
2023-01-13T20:27:28.211Z,0.67
2023-01-13T20:30:16.559Z,0.73
2023-01-13T20:33:03.602Z,0.60
2023-01-13T20:35:58.538Z,0.57
2023-01-13T20:38:46.933Z,0.67
2023-01-13T20:41:51.476Z,0.50
2023-01-13T20:44:38.735Z,0.37
2023-01-13T20:47:26.405Z,0.60
2023-01-13T20:50:14.420Z,0.50
2023-01-13T20:53:01.975Z,0.90
2023-01-13T20:55:50.422Z,0.60
2023-01-13T20:58:39.387Z,0.70
2023-01-13T21:01:26.843Z,0.60
2023-01-13T21:04:14.086Z,0.60
2023-01-13T21:07:00.955Z,0.83
2023-01-13T21:10:07.059Z,0.80
2023-01-13T21:13:15.043Z,0.80
2023-01-13T21:16:02.558Z,1.10
2023-01-13T21:19:03.622Z,0.60
2023-01-13T21:21:50.502Z,0.77
2023-01-13T21:24:37.843Z,0.90
2023-01-13T21:27:24.842Z,0.70
2023-01-13T21:30:17.089Z,0.50
2023-01-13T21:33:06.377Z,0.67
2023-01-13T21:35:53.598Z,0.90
2023-01-13T21:38:40.849Z,0.93
2023-01-13T21:41:45.491Z,0.90
2023-01-13T21:44:49.956Z,0.57
2023-01-13T21:47:50.653Z,1.10
2023-01-13T21:50:39.432Z,0.67
2023-01-13T21:53:26.421Z,1.00
2023-01-13T21:56:13.341Z,0.70
2023-01-13T21:59:00.931Z,0.93
2023-01-13T22:02:23.942Z,0.80
2023-01-13T22:04:57.395Z,0.60
2023-01-13T22:07:44.527Z,0.73
2023-01-13T22:10:31.945Z,0.70
2023-01-13T22:13:35.326Z,0.70
2023-01-13T22:16:22.633Z,0.80
2023-01-13T22:19:11.032Z,0.83
2023-01-13T22:22:00.067Z,0.60
2023-01-13T22:24:48.721Z,0.40
2023-01-13T22:27:40.982Z,0.43
2023-01-13T22:30:32.209Z,0.73
2023-01-13T22:33:19.239Z,0.50
2023-01-13T22:36:06.989Z,0.60
2023-01-13T22:38:57.115Z,0.90
2023-01-13T22:41:44.352Z,0.43
2023-01-13T22:44:31.857Z,0.40
2023-01-13T22:47:18.738Z,0.40
2023-01-13T22:50:08.288Z,0.60
2023-01-13T22:52:55.203Z,0.40
2023-01-13T22:55:44.392Z,0.47
2023-01-13T22:58:31.659Z,0.63
2023-01-13T23:01:20.121Z,0.50
2023-01-13T23:04:07.417Z,0.67
2023-01-13T23:06:54.441Z,0.60
2023-01-13T23:09:41.683Z,0.80
2023-01-13T23:12:30.582Z,0.73
2023-01-13T23:15:17.796Z,0.37
2023-01-13T23:18:05.403Z,0.70
2023-01-13T23:20:52.184Z,0.90
2023-01-13T23:23:39.405Z,0.77
2023-01-13T23:26:27.676Z,0.90
2023-01-13T23:29:16.123Z,0.70
2023-01-13T23:32:03.132Z,1.03
2023-01-13T23:34:50.039Z,0.87
2023-01-13T23:37:37.179Z,0.60
2023-01-13T23:40:24.718Z,0.70
2023-01-13T23:43:11.362Z,0.93
2023-01-13T23:46:04.878Z,0.93
2023-01-13T23:48:52.325Z,1.27
2023-01-13T23:51:39.328Z,0.90
2023-01-13T23:54:26.717Z,0.83
2023-01-13T23:57:14.915Z,0.90
